Highbluff, Alabama
Current Conditions -  °F | °C
As of 11:58 PM on Wednesday 26 Nov 2014 (Local Time) from KOZR Reporting Station
Clear Clear  
Wind Chill: 41°   Ceiling: Unl
Heat Index: 45°   Visibility: 10mi
Dew Point: 38°   Wind: 8mph
Humidity: 75%   Direction: 210°SSW
Pressure: 30.16"   Gusts: NA
Location:  31.0743°N, 85.7353°W
Report Text: KOZR 270558Z AUTO 21007KT 10SM CLR 07/03 A3016 RMK AO2 SLP216 T00740033 10109 20069 401640042 58004 RVRNO
Loading
Personal Weather Stations






























Interactive Weather Map New forecast layout! Learn more

10-Day Weather Forecast

Advertisements
Track Severe Weather on mobile